sensor_id;sensor_type;location;lat;lon;timestamp;pressure;altitude;pressure_sealevel;temperature;humidity
10135;BME280;5107;48.850;8.924;2023-07-31T00:02:14;96868.06;;;15.33;74.88
10135;BME280;5107;48.850;8.924;2023-07-31T00:04:39;96868.66;;;15.28;75.17
10135;BME280;5107;48.850;8.924;2023-07-31T00:07:05;96866.56;;;15.24;75.55
10135;BME280;5107;48.850;8.924;2023-07-31T00:09:32;96867.16;;;15.19;75.88
10135;BME280;5107;48.850;8.924;2023-07-31T00:11:57;96875.28;;;15.11;75.96
10135;BME280;5107;48.850;8.924;2023-07-31T00:14:22;96867.84;;;15.00;76.84
10135;BME280;5107;48.850;8.924;2023-07-31T00:16:48;96864.97;;;14.95;76.95
10135;BME280;5107;48.850;8.924;2023-07-31T00:19:13;96862.50;;;14.93;76.65
10135;BME280;5107;48.850;8.924;2023-07-31T00:21:38;96870.47;;;14.93;76.51
10135;BME280;5107;48.850;8.924;2023-07-31T00:24:04;96863.50;;;14.92;76.53
10135;BME280;5107;48.850;8.924;2023-07-31T00:26:29;96866.16;;;14.92;76.64
10135;BME280;5107;48.850;8.924;2023-07-31T00:28:54;96872.25;;;14.86;77.10
10135;BME280;5107;48.850;8.924;2023-07-31T00:31:20;96873.41;;;14.77;77.50
10135;BME280;5107;48.850;8.924;2023-07-31T00:33:45;96878.81;;;14.69;78.12
10135;BME280;5107;48.850;8.924;2023-07-31T00:36:10;96877.13;;;14.61;78.42
10135;BME280;5107;48.850;8.924;2023-07-31T00:38:36;96877.78;;;14.63;78.88
10135;BME280;5107;48.850;8.924;2023-07-31T00:41:01;96880.66;;;14.68;78.96
10135;BME280;5107;48.850;8.924;2023-07-31T00:43:26;96877.97;;;14.62;78.90
10135;BME280;5107;48.850;8.924;2023-07-31T00:45:52;96865.84;;;14.53;79.01
10135;BME280;5107;48.850;8.924;2023-07-31T00:48:17;96870.16;;;14.54;79.04
10135;BME280;5107;48.850;8.924;2023-07-31T00:50:42;96870.50;;;14.51;79.06
10135;BME280;5107;48.850;8.924;2023-07-31T00:53:08;96864.41;;;14.50;79.30
10135;BME280;5107;48.850;8.924;2023-07-31T00:55:33;96868.31;;;14.54;79.11
10135;BME280;5107;48.850;8.924;2023-07-31T00:57:59;96857.47;;;14.49;79.21
10135;BME280;5107;48.850;8.924;2023-07-31T01:00:24;96861.56;;;14.52;79.01
10135;BME280;5107;48.850;8.924;2023-07-31T01:02:50;96862.34;;;14.46;79.48
10135;BME280;5107;48.850;8.924;2023-07-31T01:05:18;96862.16;;;14.47;79.14
10135;BME280;5107;48.850;8.924;2023-07-31T01:07:57;96858.56;;;14.55;78.68
10135;BME280;5107;48.850;8.924;2023-07-31T01:10:29;96852.03;;;14.57;78.73
10135;BME280;5107;48.850;8.924;2023-07-31T01:12:56;96855.75;;;14.63;78.36
10135;BME280;5107;48.850;8.924;2023-07-31T01:15:22;96849.88;;;14.67;78.23
10135;BME280;5107;48.850;8.924;2023-07-31T01:17:48;96841.66;;;14.84;76.83
10135;BME280;5107;48.850;8.924;2023-07-31T01:20:26;96841.50;;;14.92;76.65
10135;BME280;5107;48.850;8.924;2023-07-31T01:29:23;96838.50;;;15.01;75.94
10135;BME280;5107;48.850;8.924;2023-07-31T01:31:41;96835.03;;;15.01;76.32
10135;BME280;5107;48.850;8.924;2023-07-31T01:34:08;96837.47;;;14.96;76.61
10135;BME280;5107;48.850;8.924;2023-07-31T01:36:35;96835.16;;;14.86;77.39
10135;BME280;5107;48.850;8.924;2023-07-31T01:39:01;96834.09;;;14.80;77.42
10135;BME280;5107;48.850;8.924;2023-07-31T01:41:27;96829.00;;;14.79;77.09
10135;BME280;5107;48.850;8.924;2023-07-31T01:43:53;96832.19;;;14.74;77.26
10135;BME280;5107;48.850;8.924;2023-07-31T01:46:18;96824.22;;;14.68;77.67
10135;BME280;5107;48.850;8.924;2023-07-31T01:48:43;96835.59;;;14.62;78.11
10135;BME280;5107;48.850;8.924;2023-07-31T01:51:08;96824.94;;;14.55;78.65
10135;BME280;5107;48.850;8.924;2023-07-31T01:53:34;96818.34;;;14.45;79.37
10135;BME280;5107;48.850;8.924;2023-07-31T01:55:59;96817.63;;;14.36;79.68
10135;BME280;5107;48.850;8.924;2023-07-31T01:58:24;96811.88;;;14.32;79.81
10135;BME280;5107;48.850;8.924;2023-07-31T02:00:50;96804.13;;;14.31;80.00
10135;BME280;5107;48.850;8.924;2023-07-31T02:03:15;96801.09;;;14.34;79.35
10135;BME280;5107;48.850;8.924;2023-07-31T02:05:47;96812.69;;;14.33;79.26
10135;BME280;5107;48.850;8.924;2023-07-31T02:08:13;96799.44;;;14.33;79.30
10135;BME280;5107;48.850;8.924;2023-07-31T02:10:39;96807.38;;;14.33;79.42
10135;BME280;5107;48.850;8.924;2023-07-31T02:13:04;96805.97;;;14.30;79.62
10135;BME280;5107;48.850;8.924;2023-07-31T02:15:30;96800.84;;;14.29;79.62
10135;BME280;5107;48.850;8.924;2023-07-31T02:17:55;96799.22;;;14.28;79.54
10135;BME280;5107;48.850;8.924;2023-07-31T02:20:20;96789.03;;;14.31;78.96
10135;BME280;5107;48.850;8.924;2023-07-31T02:22:46;96779.16;;;14.40;77.76
10135;BME280;5107;48.850;8.924;2023-07-31T02:25:11;96785.97;;;14.49;77.06
10135;BME280;5107;48.850;8.924;2023-07-31T02:27:36;96779.78;;;14.63;75.99
10135;BME280;5107;48.850;8.924;2023-07-31T02:30:02;96766.59;;;14.76;75.20
10135;BME280;5107;48.850;8.924;2023-07-31T02:32:27;96770.06;;;14.77;75.35
10135;BME280;5107;48.850;8.924;2023-07-31T02:34:53;96767.38;;;14.70;75.64
10135;BME280;5107;48.850;8.924;2023-07-31T02:37:18;96771.47;;;14.73;75.72
10135;BME280;5107;48.850;8.924;2023-07-31T02:39:43;96765.97;;;14.74;75.43
10135;BME280;5107;48.850;8.924;2023-07-31T02:42:08;96767.44;;;14.77;75.21
10135;BME280;5107;48.850;8.924;2023-07-31T02:44:34;96756.00;;;14.76;75.36
10135;BME280;5107;48.850;8.924;2023-07-31T02:46:59;96759.28;;;14.78;75.11
10135;BME280;5107;48.850;8.924;2023-07-31T02:49:24;96760.28;;;14.77;75.15
10135;BME280;5107;48.850;8.924;2023-07-31T02:51:50;96759.28;;;14.78;75.11
10135;BME280;5107;48.850;8.924;2023-07-31T02:54:15;96758.47;;;14.78;75.21
10135;BME280;5107;48.850;8.924;2023-07-31T02:56:40;96761.13;;;14.78;75.11
10135;BME280;5107;48.850;8.924;2023-07-31T02:59:06;96761.75;;;14.80;74.86
10135;BME280;5107;48.850;8.924;2023-07-31T03:01:31;96767.25;;;14.78;75.18
10135;BME280;5107;48.850;8.924;2023-07-31T03:03:56;96770.44;;;14.74;75.94
10135;BME280;5107;48.850;8.924;2023-07-31T03:06:22;96770.84;;;14.71;75.82
10135;BME280;5107;48.850;8.924;2023-07-31T03:08:47;96773.50;;;14.71;75.90
10135;BME280;5107;48.850;8.924;2023-07-31T03:11:12;96760.81;;;14.66;75.94
10135;BME280;5107;48.850;8.924;2023-07-31T03:13:38;96772.06;;;14.68;76.01
10135;BME280;5107;48.850;8.924;2023-07-31T03:16:03;96770.03;;;14.70;75.85
10135;BME280;5107;48.850;8.924;2023-07-31T03:18:28;96771.88;;;14.70;76.28
10135;BME280;5107;48.850;8.924;2023-07-31T03:20:54;96763.09;;;14.69;76.37
10135;BME280;5107;48.850;8.924;2023-07-31T03:23:19;96765.31;;;14.66;76.50
10135;BME280;5107;48.850;8.924;2023-07-31T03:26:01;96768.78;;;14.66;76.21
10135;BME280;5107;48.850;8.924;2023-07-31T03:28:28;96772.69;;;14.70;75.61
10135;BME280;5107;48.850;8.924;2023-07-31T03:30:53;96771.47;;;14.73;75.55
10135;BME280;5107;48.850;8.924;2023-07-31T03:33:19;96767.44;;;14.77;74.96
10135;BME280;5107;48.850;8.924;2023-07-31T03:35:45;96773.72;;;14.76;75.09
10135;BME280;5107;48.850;8.924;2023-07-31T03:38:10;96767.63;;;14.75;75.10
10135;BME280;5107;48.850;8.924;2023-07-31T03:40:35;96769.06;;;14.78;74.78
10135;BME280;5107;48.850;8.924;2023-07-31T03:43:01;96781.88;;;14.74;75.14
10135;BME280;5107;48.850;8.924;2023-07-31T03:45:26;96774.94;;;14.73;75.27
10135;BME280;5107;48.850;8.924;2023-07-31T03:47:51;96776.97;;;14.71;75.76
10135;BME280;5107;48.850;8.924;2023-07-31T03:50:17;96774.31;;;14.71;75.47
10135;BME280;5107;48.850;8.924;2023-07-31T03:52:42;96774.56;;;14.76;75.42
10135;BME280;5107;48.850;8.924;2023-07-31T03:55:07;96772.53;;;14.78;75.66
10135;BME280;5107;48.850;8.924;2023-07-31T03:57:33;96761.16;;;14.85;74.91
10135;BME280;5107;48.850;8.924;2023-07-31T03:59:58;96766.25;;;14.86;75.00
10135;BME280;5107;48.850;8.924;2023-07-31T04:02:24;96768.47;;;14.82;75.24
10135;BME280;5107;48.850;8.924;2023-07-31T04:04:49;96775.41;;;14.84;74.96
10135;BME280;5107;48.850;8.924;2023-07-31T04:07:14;96771.13;;;14.82;75.54
10135;BME280;5107;48.850;8.924;2023-07-31T04:09:40;96764.19;;;14.81;75.56
10135;BME280;5107;48.850;8.924;2023-07-31T04:12:05;96759.50;;;14.84;75.87
10135;BME280;5107;48.850;8.924;2023-07-31T04:14:30;96765.81;;;14.82;75.93
10135;BME280;5107;48.850;8.924;2023-07-31T04:16:56;96767.66;;;14.82;75.98
10135;BME280;5107;48.850;8.924;2023-07-31T04:19:21;96766.44;;;14.85;75.80
10135;BME280;5107;48.850;8.924;2023-07-31T04:21:46;96770.09;;;14.84;76.17
10135;BME280;5107;48.850;8.924;2023-07-31T04:24:12;96775.41;;;14.84;76.02
10135;BME280;5107;48.850;8.924;2023-07-31T04:26:37;96766.44;;;14.85;75.84
10135;BME280;5107;48.850;8.924;2023-07-31T04:29:02;96767.47;;;14.84;75.98
10135;BME280;5107;48.850;8.924;2023-07-31T04:31:28;96773.00;;;14.89;75.87
10135;BME280;5107;48.850;8.924;2023-07-31T04:33:53;96769.94;;;14.92;75.65
10135;BME280;5107;48.850;8.924;2023-07-31T04:36:18;96772.22;;;14.95;75.28
10135;BME280;5107;48.850;8.924;2023-07-31T04:38:43;96767.56;;;14.97;75.20
10135;BME280;5107;48.850;8.924;2023-07-31T04:41:09;96763.25;;;14.96;75.16
10135;BME280;5107;48.850;8.924;2023-07-31T04:43:34;96770.38;;;14.95;75.59
10135;BME280;5107;48.850;8.924;2023-07-31T04:45:59;96772.22;;;14.95;75.29
10135;BME280;5107;48.850;8.924;2023-07-31T04:48:25;96762.03;;;14.98;75.49
10135;BME280;5107;48.850;8.924;2023-07-31T04:50:50;96768.78;;;15.01;75.46
10135;BME280;5107;48.850;8.924;2023-07-31T04:53:15;96767.78;;;15.02;75.55
10135;BME280;5107;48.850;8.924;2023-07-31T04:55:41;96769.56;;;14.95;76.17
10135;BME280;5107;48.850;8.924;2023-07-31T04:58:06;96761.38;;;14.90;76.27
10135;BME280;5107;48.850;8.924;2023-07-31T05:00:31;96764.63;;;14.85;76.44
10135;BME280;5107;48.850;8.924;2023-07-31T05:02:57;96761.16;;;14.85;76.49
10135;BME280;5107;48.850;8.924;2023-07-31T05:05:22;96762.41;;;14.89;76.68
10135;BME280;5107;48.850;8.924;2023-07-31T05:07:48;96755.03;;;14.84;76.63
10135;BME280;5107;48.850;8.924;2023-07-31T05:10:13;96756.47;;;14.87;76.84
10135;BME280;5107;48.850;8.924;2023-07-31T05:12:38;96753.63;;;14.88;77.12
10135;BME280;5107;48.850;8.924;2023-07-31T05:15:04;96767.72;;;14.89;77.33
10135;BME280;5107;48.850;8.924;2023-07-31T05:17:29;96759.97;;;14.94;76.86
10135;BME280;5107;48.850;8.924;2023-07-31T05:19:57;96758.78;;;14.96;76.81
10135;BME280;5107;48.850;8.924;2023-07-31T05:22:23;96761.84;;;15.00;76.87
10135;BME280;5107;48.850;8.924;2023-07-31T05:24:48;96757.16;;;15.02;76.32
10135;BME280;5107;48.850;8.924;2023-07-31T05:27:13;96761.28;;;15.11;76.16
10135;BME280;5107;48.850;8.924;2023-07-31T05:29:43;96763.34;;;15.15;76.05
10135;BME280;5107;48.850;8.924;2023-07-31T05:32:08;96763.41;;;15.22;75.78
10135;BME280;5107;48.850;8.924;2023-07-31T05:34:34;96763.41;;;15.29;75.21
10135;BME280;5107;48.850;8.924;2023-07-31T05:36:59;96755.47;;;15.35;74.91
10135;BME280;5107;48.850;8.924;2023-07-31T05:39:24;96764.28;;;15.42;74.87
10135;BME280;5107;48.850;8.924;2023-07-31T05:41:50;96754.50;;;15.49;73.89
10135;BME280;5107;48.850;8.924;2023-07-31T05:44:15;96751.09;;;15.55;74.02
10135;BME280;5107;48.850;8.924;2023-07-31T05:46:40;96748.47;;;15.62;73.69
10135;BME280;5107;48.850;8.924;2023-07-31T05:49:07;96746.00;;;15.67;73.30
10135;BME280;5107;48.850;8.924;2023-07-31T05:51:32;96750.94;;;15.77;73.01
10135;BME280;5107;48.850;8.924;2023-07-31T05:53:57;96751.19;;;15.95;72.60
10135;BME280;5107;48.850;8.924;2023-07-31T05:56:23;96753.44;;;15.98;72.06
10135;BME280;5107;48.850;8.924;2023-07-31T05:58:48;96751.59;;;16.18;71.83
10135;BME280;5107;48.850;8.924;2023-07-31T06:01:16;96749.34;;;16.55;70.90
10135;BME280;5107;48.850;8.924;2023-07-31T06:03:41;96760.38;;;16.78;67.88
10135;BME280;5107;48.850;8.924;2023-07-31T06:06:07;96759.31;;;16.92;67.78
10135;BME280;5107;48.850;8.924;2023-07-31T06:08:32;96749.59;;;17.31;66.18
10135;BME280;5107;48.850;8.924;2023-07-31T06:10:58;96750.81;;;17.35;65.72
10135;BME280;5107;48.850;8.924;2023-07-31T06:13:23;96750.72;;;17.55;64.75
10135;BME280;5107;48.850;8.924;2023-07-31T06:15:48;96745.78;;;17.65;65.46
10135;BME280;5107;48.850;8.924;2023-07-31T06:18:13;96754.59;;;17.65;64.03
10135;BME280;5107;48.850;8.924;2023-07-31T06:20:39;96747.97;;;17.74;64.25
10135;BME280;5107;48.850;8.924;2023-07-31T06:23:05;96736.75;;;17.59;63.42
10135;BME280;5107;48.850;8.924;2023-07-31T06:25:31;96742.78;;;17.48;64.28
10135;BME280;5107;48.850;8.924;2023-07-31T06:27:56;96750.34;;;17.44;64.76
10135;BME280;5107;48.850;8.924;2023-07-31T06:30:22;96742.16;;;17.46;64.34
10135;BME280;5107;48.850;8.924;2023-07-31T06:32:47;96736.19;;;17.51;64.07
10135;BME280;5107;48.850;8.924;2023-07-31T06:35:12;96740.28;;;17.53;64.13
10135;BME280;5107;48.850;8.924;2023-07-31T06:37:37;96739.03;;;17.62;64.76
10135;BME280;5107;48.850;8.924;2023-07-31T06:40:06;96750.16;;;17.91;63.12
10135;BME280;5107;48.850;8.924;2023-07-31T06:42:32;96749.56;;;18.13;63.46
10135;BME280;5107;48.850;8.924;2023-07-31T06:44:58;96746.59;;;18.28;63.56
10135;BME280;5107;48.850;8.924;2023-07-31T06:47:23;96748.16;;;18.11;63.67
10135;BME280;5107;48.850;8.924;2023-07-31T06:49:48;96758.03;;;18.04;63.42
10135;BME280;5107;48.850;8.924;2023-07-31T06:52:14;96755.78;;;18.01;63.58
10135;BME280;5107;48.850;8.924;2023-07-31T06:54:39;96753.78;;;17.96;62.50
10135;BME280;5107;48.850;8.924;2023-07-31T06:57:04;96751.63;;;18.11;63.53
10135;BME280;5107;48.850;8.924;2023-07-31T06:59:30;96749.94;;;18.42;62.49
10135;BME280;5107;48.850;8.924;2023-07-31T07:01:55;96741.19;;;18.35;61.77
10135;BME280;5107;48.850;8.924;2023-07-31T07:04:20;96739.06;;;18.43;61.79
10135;BME280;5107;48.850;8.924;2023-07-31T07:06:46;96737.50;;;18.61;61.32
10135;BME280;5107;48.850;8.924;2023-07-31T07:09:11;96742.47;;;18.32;61.89
10135;BME280;5107;48.850;8.924;2023-07-31T07:11:37;96734.13;;;18.72;62.61
10135;BME280;5107;48.850;8.924;2023-07-31T07:14:02;96735.97;;;18.71;61.83
10135;BME280;5107;48.850;8.924;2023-07-31T07:16:28;96729.72;;;18.34;61.71
10135;BME280;5107;48.850;8.924;2023-07-31T07:18:53;96726.69;;;18.55;62.11
10135;BME280;5107;48.850;8.924;2023-07-31T07:21:19;96721.84;;;18.46;62.70
10135;BME280;5107;48.850;8.924;2023-07-31T07:23:44;96722.66;;;18.46;62.24
10135;BME280;5107;48.850;8.924;2023-07-31T07:26:09;96721.91;;;18.39;62.54
10135;BME280;5107;48.850;8.924;2023-07-31T07:28:35;96727.06;;;18.34;62.21
10135;BME280;5107;48.850;8.924;2023-07-31T07:31:02;96724.78;;;18.38;61.88
10135;BME280;5107;48.850;8.924;2023-07-31T07:33:27;96719.03;;;18.66;61.34
10135;BME280;5107;48.850;8.924;2023-07-31T07:35:53;96717.75;;;18.68;60.71
10135;BME280;5107;48.850;8.924;2023-07-31T07:38:19;96723.59;;;18.58;60.84
10135;BME280;5107;48.850;8.924;2023-07-31T07:40:44;96718.16;;;18.90;60.94
10135;BME280;5107;48.850;8.924;2023-07-31T07:43:12;96718.06;;;19.33;59.63
10135;BME280;5107;48.850;8.924;2023-07-31T07:45:37;96715.63;;;19.50;60.26
10135;BME280;5107;48.850;8.924;2023-07-31T07:48:03;96719.91;;;19.81;58.80
10135;BME280;5107;48.850;8.924;2023-07-31T07:50:28;96714.28;;;19.41;58.61
10135;BME280;5107;48.850;8.924;2023-07-31T07:52:53;96726.72;;;19.47;59.49
10135;BME280;5107;48.850;8.924;2023-07-31T07:55:20;96726.72;;;19.65;58.84
10135;BME280;5107;48.850;8.924;2023-07-31T07:57:45;96722.69;;;19.86;59.31
10135;BME280;5107;48.850;8.924;2023-07-31T08:00:12;96721.63;;;19.75;57.06
10135;BME280;5107;48.850;8.924;2023-07-31T08:02:38;96721.78;;;19.92;57.69
10135;BME280;5107;48.850;8.924;2023-07-31T08:05:04;96720.34;;;20.07;56.81
10135;BME280;5107;48.850;8.924;2023-07-31T08:07:29;96715.41;;;19.93;56.51
10135;BME280;5107;48.850;8.924;2023-07-31T08:09:57;96709.06;;;20.05;57.78
10135;BME280;5107;48.850;8.924;2023-07-31T08:12:22;96700.56;;;19.67;57.02
10135;BME280;5107;48.850;8.924;2023-07-31T08:14:47;96700.25;;;19.75;57.38
10135;BME280;5107;48.850;8.924;2023-07-31T08:17:12;96709.75;;;20.13;57.90
10135;BME280;5107;48.850;8.924;2023-07-31T08:19:38;96700.66;;;19.90;57.53
10135;BME280;5107;48.850;8.924;2023-07-31T08:22:03;96705.25;;;19.72;57.21
10135;BME280;5107;48.850;8.924;2023-07-31T08:24:28;96711.94;;;19.62;58.25
10135;BME280;5107;48.850;8.924;2023-07-31T08:26:54;96707.53;;;19.38;58.19
10135;BME280;5107;48.850;8.924;2023-07-31T08:29:19;96704.97;;;19.43;58.23
10135;BME280;5107;48.850;8.924;2023-07-31T08:31:44;96702.53;;;19.42;58.15
10135;BME280;5107;48.850;8.924;2023-07-31T08:34:10;96707.44;;;19.26;58.14
10135;BME280;5107;48.850;8.924;2023-07-31T08:36:35;96694.91;;;19.45;59.31
10135;BME280;5107;48.850;8.924;2023-07-31T08:39:00;96698.00;;;19.60;58.80
10135;BME280;5107;48.850;8.924;2023-07-31T08:41:27;96703.75;;;19.27;58.86
10135;BME280;5107;48.850;8.924;2023-07-31T08:43:54;96692.97;;;19.34;59.32
10135;BME280;5107;48.850;8.924;2023-07-31T08:46:23;96693.16;;;19.21;58.67
10135;BME280;5107;48.850;8.924;2023-07-31T08:48:50;96695.84;;;19.21;59.49
10135;BME280;5107;48.850;8.924;2023-07-31T08:51:17;96699.66;;;19.25;59.23
10135;BME280;5107;48.850;8.924;2023-07-31T08:53:42;96691.38;;;19.33;59.82
10135;BME280;5107;48.850;8.924;2023-07-31T08:56:07;96691.00;;;19.48;59.31
10135;BME280;5107;48.850;8.924;2023-07-31T08:58:34;96687.28;;;19.49;59.57
10135;BME280;5107;48.850;8.924;2023-07-31T09:01:01;96683.38;;;19.33;58.97
10135;BME280;5107;48.850;8.924;2023-07-31T09:03:29;96671.34;;;19.72;58.82
10135;BME280;5107;48.850;8.924;2023-07-31T09:05:58;96659.31;;;19.51;58.83
10135;BME280;5107;48.850;8.924;2023-07-31T09:08:26;96665.31;;;19.77;58.25
10135;BME280;5107;48.850;8.924;2023-07-31T09:10:59;96676.53;;;19.67;57.85
10135;BME280;5107;48.850;8.924;2023-07-31T09:13:27;96680.22;;;19.36;58.42
10135;BME280;5107;48.850;8.924;2023-07-31T09:15:53;96675.22;;;19.28;59.11
10135;BME280;5107;48.850;8.924;2023-07-31T09:18:18;96673.53;;;19.45;59.35
10135;BME280;5107;48.850;8.924;2023-07-31T09:21:00;96670.97;;;19.57;58.54
10135;BME280;5107;48.850;8.924;2023-07-31T09:23:25;96673.94;;;19.49;58.62
10135;BME280;5107;48.850;8.924;2023-07-31T09:25:51;96672.66;;;19.51;58.53
10135;BME280;5107;48.850;8.924;2023-07-31T09:28:16;96672.50;;;19.76;58.81
10135;BME280;5107;48.850;8.924;2023-07-31T09:30:47;96663.06;;;19.62;57.94
10135;BME280;5107;48.850;8.924;2023-07-31T09:33:13;96666.44;;;19.69;58.45
10135;BME280;5107;48.850;8.924;2023-07-31T09:35:38;96649.78;;;19.97;57.79
10135;BME280;5107;48.850;8.924;2023-07-31T09:38:08;96651.19;;;20.11;57.00
10135;BME280;5107;48.850;8.924;2023-07-31T09:40:36;96645.97;;;20.04;57.01
10135;BME280;5107;48.850;8.924;2023-07-31T09:43:04;96636.44;;;20.08;56.99
10135;BME280;5107;48.850;8.924;2023-07-31T09:45:30;96632.97;;;20.20;56.04
10135;BME280;5107;48.850;8.924;2023-07-31T09:47:56;96624.28;;;20.48;55.54
10135;BME280;5107;48.850;8.924;2023-07-31T09:50:24;96625.91;;;21.00;53.72
10135;BME280;5107;48.850;8.924;2023-07-31T09:52:50;96628.09;;;21.43;52.63
10135;BME280;5107;48.850;8.924;2023-07-31T09:55:16;96628.59;;;21.00;51.60
10135;BME280;5107;48.850;8.924;2023-07-31T09:57:45;96630.63;;;21.22;51.36
10135;BME280;5107;48.850;8.924;2023-07-31T10:00:12;96633.81;;;21.35;51.52
10135;BME280;5107;48.850;8.924;2023-07-31T10:02:38;96622.47;;;21.73;51.27
10135;BME280;5107;48.850;8.924;2023-07-31T10:05:06;96630.41;;;21.85;50.92
10135;BME280;5107;48.850;8.924;2023-07-31T10:07:36;96617.78;;;21.97;49.74
10135;BME280;5107;48.850;8.924;2023-07-31T10:10:01;96612.56;;;22.41;50.11
10135;BME280;5107;48.850;8.924;2023-07-31T10:12:29;96608.13;;;22.51;49.33
10135;BME280;5107;48.850;8.924;2023-07-31T10:14:56;96614.44;;;22.62;48.51
10135;BME280;5107;48.850;8.924;2023-07-31T10:17:22;96612.00;;;21.88;50.05
10135;BME280;5107;48.850;8.924;2023-07-31T10:19:49;96601.63;;;21.75;49.21
10135;BME280;5107;48.850;8.924;2023-07-31T10:22:15;96597.72;;;21.83;49.78
10135;BME280;5107;48.850;8.924;2023-07-31T10:24:45;96596.56;;;21.95;49.59
10135;BME280;5107;48.850;8.924;2023-07-31T10:27:10;96595.16;;;21.93;50.42
10135;BME280;5107;48.850;8.924;2023-07-31T10:29:38;96592.50;;;21.93;51.08
10135;BME280;5107;48.850;8.924;2023-07-31T10:32:05;96589.78;;;22.43;49.40
10135;BME280;5107;48.850;8.924;2023-07-31T10:34:34;96589.47;;;23.49;48.92
10135;BME280;5107;48.850;8.924;2023-07-31T10:37:19;96590.56;;;23.26;46.99
10135;BME280;5107;48.850;8.924;2023-07-31T10:39:55;96591.59;;;22.76;47.50
10135;BME280;5107;48.850;8.924;2023-07-31T10:42:27;96595.44;;;23.56;47.07
10135;BME280;5107;48.850;8.924;2023-07-31T10:44:57;96600.78;;;23.29;46.68
10135;BME280;5107;48.850;8.924;2023-07-31T10:47:23;96597.09;;;23.35;46.33
10135;BME280;5107;48.850;8.924;2023-07-31T10:49:48;96595.56;;;22.95;49.24
10135;BME280;5107;48.850;8.924;2023-07-31T10:52:19;96594.16;;;22.49;48.49
10135;BME280;5107;48.850;8.924;2023-07-31T10:54:49;96595.41;;;22.42;49.26
10135;BME280;5107;48.850;8.924;2023-07-31T10:57:23;96582.53;;;22.44;48.91
10135;BME280;5107;48.850;8.924;2023-07-31T10:59:50;96579.94;;;22.70;47.95
10135;BME280;5107;48.850;8.924;2023-07-31T11:02:26;96583.41;;;22.88;48.48
10135;BME280;5107;48.850;8.924;2023-07-31T11:05:10;96581.56;;;23.15;47.54
10135;BME280;5107;48.850;8.924;2023-07-31T11:07:49;96582.50;;;23.26;47.71
10135;BME280;5107;48.850;8.924;2023-07-31T11:10:18;96574.34;;;23.42;47.32
10135;BME280;5107;48.850;8.924;2023-07-31T11:12:45;96575.09;;;23.65;48.04
10135;BME280;5107;48.850;8.924;2023-07-31T11:15:11;96574.50;;;22.82;48.01
10135;BME280;5107;48.850;8.924;2023-07-31T11:17:40;96581.53;;;22.88;47.76
10135;BME280;5107;48.850;8.924;2023-07-31T11:20:06;96584.69;;;22.63;49.04
10135;BME280;5107;48.850;8.924;2023-07-31T11:22:34;96577.31;;;22.54;48.33
10135;BME280;5107;48.850;8.924;2023-07-31T11:25:01;96581.56;;;22.11;49.14
10135;BME280;5107;48.850;8.924;2023-07-31T11:27:28;96569.94;;;22.44;49.83
10135;BME280;5107;48.850;8.924;2023-07-31T11:30:00;96576.66;;;22.25;48.61
10135;BME280;5107;48.850;8.924;2023-07-31T11:32:25;96569.06;;;21.67;49.67
10135;BME280;5107;48.850;8.924;2023-07-31T11:34:54;96569.13;;;21.88;49.53
10135;BME280;5107;48.850;8.924;2023-07-31T11:37:19;96568.31;;;21.88;49.30
10135;BME280;5107;48.850;8.924;2023-07-31T11:39:59;96572.28;;;21.69;50.30
10135;BME280;5107;48.850;8.924;2023-07-31T11:42:24;96568.25;;;21.66;50.10
10135;BME280;5107;48.850;8.924;2023-07-31T11:44:50;96565.97;;;21.91;49.38
10135;BME280;5107;48.850;8.924;2023-07-31T11:47:16;96555.38;;;21.85;49.46
10135;BME280;5107;48.850;8.924;2023-07-31T11:49:42;96553.22;;;21.99;50.11
10135;BME280;5107;48.850;8.924;2023-07-31T11:52:08;96552.19;;;22.00;49.77
10135;BME280;5107;48.850;8.924;2023-07-31T11:54:34;96549.06;;;22.08;49.53
10135;BME280;5107;48.850;8.924;2023-07-31T11:57:00;96543.78;;;22.13;49.42
10135;BME280;5107;48.850;8.924;2023-07-31T11:59:26;96544.59;;;22.13;49.92
10135;BME280;5107;48.850;8.924;2023-07-31T12:01:52;96551.25;;;21.94;50.39
10135;BME280;5107;48.850;8.924;2023-07-31T12:04:19;96539.47;;;21.95;49.97
10135;BME280;5107;48.850;8.924;2023-07-31T12:06:46;96542.75;;;21.97;49.92
10135;BME280;5107;48.850;8.924;2023-07-31T12:09:14;96542.09;;;21.73;49.80
10135;BME280;5107;48.850;8.924;2023-07-31T12:11:44;96544.53;;;21.91;50.74
10135;BME280;5107;48.850;8.924;2023-07-31T12:14:28;96544.53;;;21.75;49.85
10135;BME280;5107;48.850;8.924;2023-07-31T12:17:00;96532.09;;;21.52;49.88
10135;BME280;5107;48.850;8.924;2023-07-31T12:19:26;96532.19;;;21.57;49.97
10135;BME280;5107;48.850;8.924;2023-07-31T12:21:58;96520.84;;;21.67;49.67
10135;BME280;5107;48.850;8.924;2023-07-31T12:24:26;96517.75;;;21.75;50.42
10135;BME280;5107;48.850;8.924;2023-07-31T12:26:51;96511.22;;;21.71;50.00
10135;BME280;5107;48.850;8.924;2023-07-31T12:29:18;96508.63;;;21.92;50.28
10135;BME280;5107;48.850;8.924;2023-07-31T12:31:43;96504.81;;;22.05;49.92
10135;BME280;5107;48.850;8.924;2023-07-31T12:34:16;96502.31;;;21.99;49.91
10135;BME280;5107;48.850;8.924;2023-07-31T12:36:46;96505.75;;;22.16;49.54
10135;BME280;5107;48.850;8.924;2023-07-31T12:39:14;96500.25;;;22.06;49.18
10135;BME280;5107;48.850;8.924;2023-07-31T12:41:40;96500.53;;;22.26;48.95
10135;BME280;5107;48.850;8.924;2023-07-31T12:44:05;96487.78;;;22.60;48.82
10135;BME280;5107;48.850;8.924;2023-07-31T12:46:30;96492.25;;;22.49;49.12
10135;BME280;5107;48.850;8.924;2023-07-31T12:48:56;96480.69;;;22.49;48.94
10135;BME280;5107;48.850;8.924;2023-07-31T12:51:21;96484.84;;;22.61;49.81
10135;BME280;5107;48.850;8.924;2023-07-31T12:53:46;96478.91;;;22.76;49.00
10135;BME280;5107;48.850;8.924;2023-07-31T12:56:12;96475.44;;;22.81;49.05
10135;BME280;5107;48.850;8.924;2023-07-31T12:58:37;96468.63;;;22.73;48.92
10135;BME280;5107;48.850;8.924;2023-07-31T13:01:03;96464.88;;;22.52;49.63
10135;BME280;5107;48.850;8.924;2023-07-31T13:03:28;96459.84;;;22.56;49.16
10135;BME280;5107;48.850;8.924;2023-07-31T13:05:54;96465.47;;;22.32;50.27
10135;BME280;5107;48.850;8.924;2023-07-31T13:08:19;96466.34;;;22.16;50.96
10135;BME280;5107;48.850;8.924;2023-07-31T13:10:45;96467.91;;;22.12;51.03
10135;BME280;5107;48.850;8.924;2023-07-31T13:13:10;96469.41;;;22.25;50.44